createdAt,value
2023-01-10T00:00:44.017Z,2.55
2023-01-10T00:03:12.312Z,2.83
2023-01-10T00:05:40.561Z,2.70
2023-01-10T00:08:08.690Z,2.60
2023-01-10T00:10:36.367Z,2.40
2023-01-10T00:13:29.862Z,3.60
2023-01-10T00:15:57.145Z,3.17
2023-01-10T00:18:24.486Z,3.38
2023-01-10T00:20:51.796Z,3.75
2023-01-10T00:23:20.020Z,3.75
2023-01-10T00:25:47.058Z,4.75
2023-01-10T00:28:20.530Z,3.20
2023-01-10T00:30:55.253Z,3.50
2023-01-10T00:33:23.026Z,3.25
2023-01-10T00:35:50.294Z,3.45
2023-01-10T00:38:17.353Z,4.20
2023-01-10T00:40:45.917Z,3.55
2023-01-10T00:45:58.880Z,3.55
2023-01-10T00:48:25.880Z,3.70
2023-01-10T00:50:52.995Z,3.95
2023-01-10T00:53:20.239Z,4.22
2023-01-10T00:55:47.229Z,4.50
2023-01-10T00:58:15.546Z,5.32
2023-01-10T01:00:46.908Z,4.25
2023-01-10T01:03:14.268Z,4.28
2023-01-10T01:05:45.715Z,3.92
2023-01-10T01:08:14.749Z,3.78
2023-01-10T01:10:42.694Z,3.47
2023-01-10T01:13:11.137Z,3.78
2023-01-10T01:15:38.423Z,3.78
2023-01-10T01:18:06.382Z,4.25
2023-01-10T01:20:33.756Z,3.97
2023-01-10T01:23:01.196Z,3.22
2023-01-10T01:25:28.268Z,3.40
2023-01-10T01:27:55.341Z,2.92
2023-01-10T01:30:22.475Z,3.42
2023-01-10T01:32:49.464Z,2.92
2023-01-10T01:35:17.264Z,3.67
2023-01-10T01:37:44.972Z,3.90
2023-01-10T01:40:18.024Z,3.37
2023-01-10T01:42:46.858Z,3.42
2023-01-10T01:45:23.175Z,3.20
2023-01-10T01:48:01.683Z,3.33
2023-01-10T01:50:34.937Z,3.60
2023-01-10T01:53:05.069Z,3.17
2023-01-10T01:55:34.816Z,3.80
2023-01-10T01:58:08.794Z,3.38
2023-01-10T02:00:35.864Z,2.92
2023-01-10T02:03:04.809Z,3.58
2023-01-10T02:05:34.555Z,3.10
2023-01-10T02:08:02.450Z,2.97
2023-01-10T02:11:21.710Z,2.65
2023-01-10T02:13:50.596Z,2.40
2023-01-10T02:16:19.421Z,2.65
2023-01-10T02:18:46.471Z,2.90
2023-01-10T02:21:39.195Z,2.53
2023-01-10T02:24:27.475Z,2.85
2023-01-10T02:27:11.406Z,3.33
2023-01-10T02:29:56.616Z,3.42
2023-01-10T02:33:00.243Z,2.70
2023-01-10T02:36:09.834Z,2.95
2023-01-10T02:38:58.804Z,2.85
2023-01-10T02:41:50.535Z,3.15
2023-01-10T02:44:36.001Z,2.92
2023-01-10T02:47:04.456Z,2.38
2023-01-10T02:49:31.505Z,2.95
2023-01-10T02:51:58.532Z,2.80
2023-01-10T02:54:30.787Z,2.20
2023-01-10T02:57:16.646Z,2.88
2023-01-10T03:00:09.484Z,2.95
2023-01-10T03:03:14.708Z,2.90
2023-01-10T03:06:01.812Z,2.75
2023-01-10T03:08:53.369Z,2.65
2023-01-10T03:11:40.054Z,2.90
2023-01-10T03:14:26.060Z,2.60
2023-01-10T03:17:00.706Z,2.25
2023-01-10T03:19:33.881Z,2.90
2023-01-10T03:22:03.586Z,3.00
2023-01-10T03:24:39.045Z,3.00
2023-01-10T03:27:27.722Z,2.83
2023-01-10T03:30:14.194Z,2.45
2023-01-10T03:32:42.884Z,2.40
2023-01-10T03:37:49.598Z,2.65
2023-01-10T03:40:19.372Z,2.95
2023-01-10T03:43:13.758Z,2.50
2023-01-10T03:45:45.754Z,2.47
2023-01-10T03:48:16.025Z,3.00
2023-01-10T03:50:44.702Z,3.08
2023-01-10T03:55:42.300Z,3.25
2023-01-10T03:58:09.330Z,3.95
2023-01-10T04:00:36.458Z,3.55
2023-01-10T04:03:03.472Z,3.60
2023-01-10T04:05:30.448Z,3.58
2023-01-10T04:07:57.462Z,2.90
2023-01-10T04:10:27.199Z,3.33
2023-01-10T04:12:54.218Z,3.10
2023-01-10T04:15:21.379Z,4.15
2023-01-10T04:17:48.846Z,3.83
2023-01-10T04:20:16.155Z,3.50
2023-01-10T04:22:44.834Z,3.28
2023-01-10T04:27:38.927Z,3.30
2023-01-10T04:30:06.641Z,2.83
2023-01-10T04:32:33.696Z,3.47
2023-01-10T04:35:00.781Z,3.38
2023-01-10T04:37:27.851Z,2.67
2023-01-10T04:39:54.885Z,2.60
2023-01-10T04:42:21.849Z,2.83
2023-01-10T04:44:48.831Z,3.38
2023-01-10T04:47:15.801Z,3.10
2023-01-10T04:49:42.770Z,3.08
2023-01-10T04:52:10.797Z,3.22
2023-01-10T04:54:37.748Z,2.58
2023-01-10T04:57:05.898Z,2.45
2023-01-10T04:59:33.267Z,2.83
2023-01-10T05:02:00.369Z,2.65
2023-01-10T05:04:27.415Z,2.78
2023-01-10T05:06:54.409Z,3.33
2023-01-10T05:09:21.471Z,3.22
2023-01-10T05:11:48.458Z,2.72
2023-01-10T05:14:15.448Z,2.72
2023-01-10T05:16:42.505Z,3.08
2023-01-10T05:19:09.577Z,2.90
2023-01-10T05:21:36.603Z,3.20
2023-01-10T05:24:03.787Z,3.72
2023-01-10T05:26:30.779Z,3.95
2023-01-10T05:28:57.770Z,3.28
2023-01-10T05:31:24.808Z,2.67
2023-01-10T05:33:52.333Z,3.75
2023-01-10T05:36:19.783Z,3.40
2023-01-10T05:38:47.180Z,2.70
2023-01-10T05:41:14.200Z,2.75
2023-01-10T05:43:41.540Z,2.83
2023-01-10T05:46:08.732Z,2.58
2023-01-10T05:48:35.791Z,2.95
2023-01-10T05:51:03.783Z,3.67
2023-01-10T05:53:30.895Z,3.15
2023-01-10T05:56:00.036Z,3.50
2023-01-10T05:58:28.101Z,3.72
2023-01-10T06:00:56.380Z,2.58
2023-01-10T06:03:23.611Z,3.35
2023-01-10T06:05:50.586Z,2.75
2023-01-10T06:08:17.677Z,3.08
2023-01-10T06:10:44.874Z,3.15
2023-01-10T06:13:12.352Z,3.13
2023-01-10T06:15:39.619Z,3.13
2023-01-10T06:18:07.208Z,2.83
2023-01-10T06:20:34.534Z,2.22
2023-01-10T06:23:04.748Z,4.10
2023-01-10T06:25:37.051Z,3.75
2023-01-10T06:28:04.473Z,3.00
2023-01-10T06:30:31.479Z,4.32
2023-01-10T06:33:05.941Z,3.05
2023-01-10T06:35:33.606Z,3.38
2023-01-10T06:38:00.639Z,3.78
2023-01-10T06:40:28.555Z,3.05
2023-01-10T06:42:55.635Z,2.92
2023-01-10T06:45:22.667Z,2.33
2023-01-10T06:47:49.568Z,2.80
2023-01-10T06:50:16.746Z,3.55
2023-01-10T06:52:43.720Z,2.95
2023-01-10T06:55:10.717Z,3.47
2023-01-10T06:57:38.679Z,3.40
2023-01-10T07:00:08.179Z,2.75
2023-01-10T07:02:35.327Z,2.35
2023-01-10T07:05:02.448Z,3.53
2023-01-10T07:07:29.598Z,2.75
2023-01-10T07:09:56.636Z,2.92
2023-01-10T07:12:23.603Z,3.33
2023-01-10T07:14:50.613Z,2.47
2023-01-10T07:17:17.680Z,2.80
2023-01-10T07:19:44.693Z,2.15
2023-01-10T07:22:12.549Z,2.40
2023-01-10T07:24:39.491Z,3.07
2023-01-10T07:27:06.553Z,2.20
2023-01-10T07:29:33.603Z,2.83
2023-01-10T07:32:00.628Z,2.38
2023-01-10T07:34:27.745Z,2.13
2023-01-10T07:36:54.768Z,2.22
2023-01-10T07:39:21.783Z,2.78
2023-01-10T07:41:49.850Z,2.33
2023-01-10T07:44:17.221Z,3.08
2023-01-10T07:46:44.327Z,2.35
2023-01-10T07:49:11.420Z,1.88
2023-01-10T07:51:38.409Z,2.15
2023-01-10T07:54:05.506Z,1.90
2023-01-10T07:56:32.871Z,2.05
2023-01-10T07:59:01.372Z,1.90
2023-01-10T08:03:58.851Z,2.63
2023-01-10T08:06:25.927Z,2.20
2023-01-10T08:08:53.078Z,2.22
2023-01-10T08:11:20.141Z,1.80
2023-01-10T08:13:47.177Z,1.70
2023-01-10T08:16:15.696Z,1.90
2023-01-10T08:21:10.777Z,1.93
2023-01-10T08:23:38.054Z,2.53
2023-01-10T08:26:05.876Z,2.17
2023-01-10T08:28:33.389Z,1.88
2023-01-10T08:31:06.208Z,2.55
2023-01-10T08:33:33.712Z,2.28
2023-01-10T08:36:00.732Z,2.47
2023-01-10T08:38:27.925Z,2.03
2023-01-10T08:40:58.423Z,2.17
2023-01-10T08:43:25.436Z,2.30
2023-01-10T08:45:52.491Z,2.30
2023-01-10T08:48:19.612Z,2.53
2023-01-10T08:50:46.570Z,2.20
2023-01-10T08:53:13.896Z,2.70
2023-01-10T08:55:40.952Z,2.70
2023-01-10T08:58:09.676Z,2.78
2023-01-10T09:00:36.618Z,2.33
2023-01-10T09:03:06.678Z,2.50
2023-01-10T09:05:33.760Z,2.58
2023-01-10T09:08:02.206Z,2.00
2023-01-10T09:10:30.318Z,2.30
2023-01-10T09:13:01.847Z,1.77
2023-01-10T09:15:34.883Z,1.90
2023-01-10T09:18:07.123Z,2.05
2023-01-10T09:20:37.030Z,1.90
2023-01-10T09:23:20.147Z,2.10
2023-01-10T09:25:49.007Z,1.92
2023-01-10T09:28:16.067Z,1.52
2023-01-10T09:30:44.150Z,1.90
2023-01-10T09:33:11.897Z,2.22
2023-01-10T09:35:40.864Z,1.83
2023-01-10T09:38:18.978Z,1.52
2023-01-10T09:41:00.276Z,1.30
2023-01-10T09:43:35.974Z,1.77
2023-01-10T09:46:07.758Z,1.33
2023-01-10T09:49:04.892Z,1.33
2023-01-10T09:51:44.990Z,0.90
2023-01-10T09:54:25.753Z,0.80
2023-01-10T09:56:53.881Z,0.95
2023-01-10T09:59:25.228Z,0.82
2023-01-10T10:01:59.620Z,1.00
2023-01-10T10:04:37.113Z,0.80
2023-01-10T10:07:08.685Z,0.70
2023-01-10T10:09:35.734Z,0.90
2023-01-10T10:12:17.818Z,1.00
2023-01-10T10:15:23.218Z,0.73
2023-01-10T10:18:16.821Z,0.73
2023-01-10T10:20:59.185Z,0.60
2023-01-10T10:23:34.624Z,0.82
2023-01-10T10:26:13.313Z,0.60
2023-01-10T10:28:57.874Z,0.52
2023-01-10T10:31:33.854Z,0.60
2023-01-10T10:34:39.893Z,0.45
2023-01-10T10:37:24.776Z,0.63
2023-01-10T10:39:57.549Z,0.68
2023-01-10T10:42:30.382Z,0.70
2023-01-10T10:45:05.044Z,0.50
2023-01-10T10:47:35.303Z,0.50
2023-01-10T10:50:02.367Z,0.50
2023-01-10T10:52:32.383Z,0.43
2023-01-10T10:54:59.812Z,0.50
2023-01-10T10:57:29.782Z,0.50
2023-01-10T10:59:57.906Z,0.50
2023-01-10T11:02:33.447Z,0.40
2023-01-10T11:05:05.056Z,0.50
2023-01-10T11:07:37.576Z,0.30
2023-01-10T11:10:35.129Z,0.40
2023-01-10T11:13:48.093Z,0.40
2023-01-10T11:16:31.664Z,0.60
2023-01-10T11:19:13.685Z,0.40
2023-01-10T11:21:41.537Z,0.38
2023-01-10T11:24:23.091Z,0.33
2023-01-10T11:26:51.457Z,0.30
2023-01-10T11:29:26.499Z,0.43
2023-01-10T11:31:56.163Z,0.40
2023-01-10T11:34:30.651Z,0.43
2023-01-10T11:36:57.622Z,0.40
2023-01-10T11:39:25.412Z,0.40
2023-01-10T11:41:53.442Z,0.40
2023-01-10T11:44:24.544Z,0.40
2023-01-10T11:46:59.133Z,0.68
2023-01-10T11:49:39.499Z,0.50
2023-01-10T11:52:29.737Z,0.50
2023-01-10T11:55:00.490Z,0.50
2023-01-10T11:57:30.851Z,0.47
2023-01-10T12:00:09.665Z,0.52
2023-01-10T12:02:44.657Z,0.60
2023-01-10T12:08:07.850Z,0.43
2023-01-10T12:10:35.760Z,0.77
2023-01-10T12:13:16.768Z,0.70
2023-01-10T12:15:43.784Z,0.70
2023-01-10T12:18:12.170Z,0.50
2023-01-10T12:20:52.607Z,0.57
2023-01-10T12:23:25.250Z,0.98
2023-01-10T12:26:07.172Z,0.80
2023-01-10T12:28:51.525Z,0.80
2023-01-10T12:31:21.788Z,0.50
2023-01-10T12:33:56.541Z,0.38
2023-01-10T12:36:44.728Z,0.70
2023-01-10T12:39:18.394Z,0.77
2023-01-10T12:42:24.191Z,1.05
2023-01-10T12:44:58.460Z,0.80
2023-01-10T12:47:33.821Z,0.75
2023-01-10T12:50:41.778Z,0.80
2023-01-10T12:53:31.824Z,0.73
2023-01-10T12:56:01.681Z,0.90
2023-01-10T12:59:03.888Z,0.90
2023-01-10T13:01:40.590Z,0.70
2023-01-10T13:04:16.410Z,0.90
2023-01-10T13:06:44.615Z,0.70
2023-01-10T13:09:17.951Z,0.50
2023-01-10T13:12:01.238Z,0.70
2023-01-10T13:14:46.667Z,0.65
2023-01-10T13:17:28.397Z,0.55
2023-01-10T13:20:19.301Z,0.63
2023-01-10T13:22:48.278Z,0.60
2023-01-10T13:25:28.963Z,0.50
2023-01-10T13:28:27.053Z,0.55
2023-01-10T13:31:18.803Z,0.63
2023-01-10T13:34:00.890Z,0.50
2023-01-10T13:36:37.822Z,0.55
2023-01-10T13:39:09.043Z,0.50
2023-01-10T13:42:16.604Z,0.65
2023-01-10T13:45:01.979Z,0.85
2023-01-10T13:47:40.925Z,0.75
2023-01-10T13:50:23.387Z,0.60
2023-01-10T13:52:53.629Z,0.60
2023-01-10T13:55:29.970Z,0.45
2023-01-10T13:58:02.028Z,0.70
2023-01-10T14:00:53.611Z,0.60
2023-01-10T14:03:53.512Z,0.60
2023-01-10T14:06:29.769Z,0.52
2023-01-10T14:09:03.882Z,0.50
2023-01-10T14:11:42.837Z,0.60
2023-01-10T14:14:23.616Z,0.68
2023-01-10T14:16:54.871Z,0.60
2023-01-10T14:19:30.977Z,0.43
2023-01-10T14:22:01.495Z,0.60
2023-01-10T14:24:42.374Z,0.60
2023-01-10T14:27:17.747Z,0.50
2023-01-10T14:29:53.000Z,0.60
2023-01-10T14:32:38.992Z,0.55
2023-01-10T14:35:08.593Z,0.70
2023-01-10T14:37:43.599Z,0.60
2023-01-10T14:40:32.599Z,0.80
2023-01-10T14:43:03.744Z,0.70
2023-01-10T14:46:01.595Z,0.50
2023-01-10T14:48:35.800Z,0.50
2023-01-10T14:51:23.989Z,0.60
2023-01-10T14:54:04.389Z,0.85
2023-01-10T14:56:43.756Z,0.70
2023-01-10T14:59:25.980Z,1.02
2023-01-10T15:01:59.209Z,0.70
2023-01-10T15:04:36.261Z,0.80
2023-01-10T15:07:12.081Z,0.80
2023-01-10T15:09:39.528Z,0.80
2023-01-10T15:12:12.027Z,0.65
2023-01-10T15:14:39.221Z,0.75
2023-01-10T15:17:09.137Z,0.70
2023-01-10T15:19:38.579Z,0.63
2023-01-10T15:22:34.495Z,0.68
2023-01-10T15:25:25.578Z,0.52
2023-01-10T15:27:53.268Z,0.60
2023-01-10T15:30:26.162Z,0.43
2023-01-10T15:32:56.855Z,0.50
2023-01-10T15:35:35.207Z,0.50
2023-01-10T15:38:16.701Z,0.52
2023-01-10T15:40:44.334Z,0.52
2023-01-10T15:43:21.760Z,0.60
2023-01-10T15:48:33.527Z,0.50
2023-01-10T15:51:04.274Z,0.70
2023-01-10T15:53:53.067Z,0.85
2023-01-10T15:56:26.110Z,0.57
2023-01-10T15:58:53.832Z,0.60
2023-01-10T16:01:21.152Z,0.90
2023-01-10T16:03:50.091Z,0.70
2023-01-10T16:06:23.517Z,0.68
2023-01-10T16:08:53.750Z,1.10
2023-01-10T16:12:05.064Z,0.90
2023-01-10T16:14:33.728Z,1.20
2023-01-10T16:17:01.686Z,0.82
2023-01-10T16:19:29.270Z,0.80
2023-01-10T16:21:58.211Z,0.60
2023-01-10T16:24:30.644Z,0.90
2023-01-10T16:27:00.535Z,1.08
2023-01-10T16:29:28.002Z,0.70
2023-01-10T16:31:55.356Z,0.73
2023-01-10T16:34:22.504Z,1.23
2023-01-10T16:36:49.433Z,0.88
2023-01-10T16:39:18.945Z,0.95
2023-01-10T16:42:05.489Z,1.45
2023-01-10T16:44:33.979Z,1.30
2023-01-10T16:49:28.296Z,1.02
2023-01-10T16:51:57.457Z,1.20
2023-01-10T16:54:28.379Z,1.35
2023-01-10T16:56:55.934Z,1.15
2023-01-10T16:59:23.000Z,1.37
2023-01-10T17:01:58.394Z,1.10
2023-01-10T17:04:35.017Z,1.40
2023-01-10T17:07:02.246Z,0.80
2023-01-10T17:09:31.045Z,1.35
2023-01-10T17:12:13.797Z,1.13
2023-01-10T17:14:40.755Z,0.90
2023-01-10T17:17:07.776Z,0.98
2023-01-10T17:19:34.787Z,1.05
2023-01-10T17:22:01.779Z,0.90
2023-01-10T17:24:29.967Z,0.90
2023-01-10T17:26:57.005Z,1.20
2023-01-10T17:29:23.951Z,0.95
2023-01-10T17:31:51.157Z,0.85
2023-01-10T17:34:18.248Z,1.00
2023-01-10T17:36:45.221Z,0.80
2023-01-10T17:39:12.313Z,0.63
2023-01-10T17:41:39.283Z,0.80
2023-01-10T17:44:06.276Z,0.85
2023-01-10T17:46:33.297Z,0.70
2023-01-10T17:49:02.333Z,1.00
2023-01-10T17:51:29.293Z,0.70
2023-01-10T17:53:56.322Z,0.93
2023-01-10T17:56:23.509Z,0.70
2023-01-10T17:58:51.807Z,0.77
2023-01-10T18:01:24.681Z,0.80
2023-01-10T18:03:52.816Z,0.65
2023-01-10T18:06:24.352Z,0.90
2023-01-10T18:08:52.228Z,0.90
2023-01-10T18:11:19.345Z,1.08
2023-01-10T18:13:46.303Z,0.70
2023-01-10T18:16:13.225Z,0.85
2023-01-10T18:18:40.201Z,1.10
2023-01-10T18:21:13.579Z,1.10
2023-01-10T18:23:40.677Z,0.88
2023-01-10T18:26:10.534Z,0.98
2023-01-10T18:28:43.364Z,0.95
2023-01-10T18:31:16.229Z,0.88
2023-01-10T18:33:47.518Z,0.85
2023-01-10T18:36:17.294Z,0.85
2023-01-10T18:38:45.889Z,0.80
2023-01-10T18:41:13.257Z,0.82
2023-01-10T18:43:40.329Z,0.95
2023-01-10T18:46:11.708Z,0.80
2023-01-10T18:48:40.681Z,0.73
2023-01-10T18:51:10.052Z,1.13
2023-01-10T18:53:37.180Z,0.80
2023-01-10T18:56:05.662Z,0.80
2023-01-10T19:01:12.372Z,0.55
2023-01-10T19:03:39.857Z,0.70
2023-01-10T19:06:11.232Z,0.60
2023-01-10T19:08:39.525Z,0.50
2023-01-10T19:11:13.779Z,0.88
2023-01-10T19:13:42.621Z,0.70
2023-01-10T19:18:36.707Z,0.65
2023-01-10T19:21:04.576Z,0.70
2023-01-10T19:23:32.882Z,0.60
2023-01-10T19:26:00.090Z,0.50
2023-01-10T19:28:29.789Z,0.60
2023-01-10T19:31:04.139Z,0.50
2023-01-10T19:33:34.562Z,0.50
2023-01-10T19:36:09.764Z,0.60
2023-01-10T19:38:36.898Z,0.47
2023-01-10T19:41:04.063Z,0.43
2023-01-10T19:43:31.212Z,0.52
2023-01-10T19:45:58.357Z,0.50
2023-01-10T19:48:25.383Z,0.50
2023-01-10T19:50:52.473Z,0.50
2023-01-10T19:53:23.849Z,0.40
2023-01-10T19:56:00.605Z,0.47
2023-01-10T19:58:27.690Z,0.47
2023-01-10T20:00:54.748Z,0.50
2023-01-10T20:03:21.850Z,0.50
2023-01-10T20:05:48.861Z,0.52
2023-01-10T20:08:15.828Z,0.80
2023-01-10T20:10:42.876Z,0.70
2023-01-10T20:13:10.491Z,0.80
2023-01-10T20:15:37.512Z,0.87
2023-01-10T20:18:04.850Z,0.70
2023-01-10T20:20:31.800Z,0.77
2023-01-10T20:22:58.808Z,0.80
2023-01-10T20:25:25.728Z,0.80
2023-01-10T20:27:53.109Z,0.90
2023-01-10T20:30:20.144Z,0.73
2023-01-10T20:32:47.100Z,0.70
2023-01-10T20:35:14.205Z,0.82
2023-01-10T20:37:41.196Z,1.30
2023-01-10T20:40:09.837Z,1.30
2023-01-10T20:42:36.960Z,1.30
2023-01-10T20:45:04.461Z,1.17
2023-01-10T20:47:32.692Z,0.90
2023-01-10T20:49:59.673Z,1.00
2023-01-10T20:52:27.280Z,1.35
2023-01-10T20:54:54.433Z,1.25
2023-01-10T20:57:21.437Z,0.95
2023-01-10T20:59:48.368Z,0.90
2023-01-10T21:02:15.373Z,0.95
2023-01-10T21:04:42.329Z,1.00
2023-01-10T21:07:09.410Z,1.10
2023-01-10T21:09:36.481Z,1.00
2023-01-10T21:12:17.608Z,0.80
2023-01-10T21:14:49.453Z,0.85
2023-01-10T21:17:16.444Z,0.73
2023-01-10T21:19:43.434Z,0.80
2023-01-10T21:22:10.454Z,0.75
2023-01-10T21:24:37.541Z,1.00
2023-01-10T21:27:04.664Z,1.05
2023-01-10T21:29:31.685Z,1.30
2023-01-10T21:31:58.793Z,0.90
2023-01-10T21:34:26.525Z,0.90
2023-01-10T21:36:54.442Z,1.10
2023-01-10T21:39:21.510Z,1.27
2023-01-10T21:42:06.906Z,0.80
2023-01-10T21:44:33.902Z,0.90
2023-01-10T21:47:01.117Z,0.93
2023-01-10T21:49:28.213Z,0.90
2023-01-10T21:51:55.865Z,1.10
2023-01-10T21:54:22.825Z,0.90
2023-01-10T21:56:49.853Z,0.93
2023-01-10T21:59:17.671Z,0.68
2023-01-10T22:01:44.977Z,0.80
2023-01-10T22:04:12.757Z,0.82
2023-01-10T22:06:39.915Z,1.08
2023-01-10T22:09:07.055Z,0.50
2023-01-10T22:11:34.098Z,0.80
2023-01-10T22:14:01.071Z,0.80
2023-01-10T22:16:28.095Z,0.70
2023-01-10T22:18:55.326Z,0.68
2023-01-10T22:21:22.477Z,0.80
2023-01-10T22:23:49.500Z,0.45
2023-01-10T22:26:16.883Z,0.77
2023-01-10T22:28:43.894Z,0.90
2023-01-10T22:31:11.100Z,0.70
2023-01-10T22:33:38.295Z,0.52
2023-01-10T22:36:23.561Z,0.30
2023-01-10T22:38:50.623Z,0.80
2023-01-10T22:41:28.716Z,0.60
2023-01-10T22:43:56.287Z,0.70
2023-01-10T22:46:23.451Z,0.50
2023-01-10T22:48:50.539Z,0.70
2023-01-10T22:51:18.913Z,0.30
2023-01-10T22:53:53.542Z,0.40
2023-01-10T22:56:21.029Z,0.50
2023-01-10T22:58:48.262Z,0.93
2023-01-10T23:01:17.286Z,1.02
2023-01-10T23:03:44.588Z,1.10
2023-01-10T23:06:12.796Z,0.88
2023-01-10T23:08:42.041Z,0.85
2023-01-10T23:11:10.751Z,1.10
2023-01-10T23:13:37.926Z,1.00
2023-01-10T23:16:12.525Z,0.90
2023-01-10T23:18:40.338Z,1.00
2023-01-10T23:21:07.708Z,0.90
2023-01-10T23:23:35.021Z,0.90
2023-01-10T23:26:08.052Z,0.88
2023-01-10T23:28:38.193Z,0.90
2023-01-10T23:31:07.053Z,1.08
2023-01-10T23:33:34.967Z,0.85
2023-01-10T23:36:02.162Z,1.25
2023-01-10T23:38:31.049Z,1.27
2023-01-10T23:40:58.224Z,0.85
2023-01-10T23:43:25.385Z,1.20
2023-01-10T23:45:52.746Z,1.10
2023-01-10T23:48:20.068Z,1.30
2023-01-10T23:50:48.825Z,0.95
2023-01-10T23:53:16.545Z,1.15
2023-01-10T23:55:43.656Z,1.33
2023-01-10T23:58:10.861Z,1.55
